Time;durP1;ratioP1;P1;durP2;ratioP2;P2;SDS_P1;SDS_P2;PMS_P1;PMS_P2;Temp;Humidity;BMP_temperature;BMP_pressure;BME280_temperature;BME280_humidity;BME280_pressure;Samples;Min_cycle;Max_cycle;Signal;HPM_P1;HPM_P2
2022/07/27 00:01:17;;;;;;;2.57;2.10;;;19.10;99.90;;;;;;5048857;28;20665;-82
2022/07/27 00:03:45;;;;;;;2.30;2.10;;;19.10;99.90;;;;;;5049309;28;20636;-83
2022/07/27 00:06:13;;;;;;;2.20;1.70;;;19.00;99.90;;;;;;5045578;28;20629;-82
2022/07/27 00:08:40;;;;;;;1.47;1.37;;;19.00;99.90;;;;;;5048600;28;20711;-82
2022/07/27 00:11:08;;;;;;;3.53;2.20;;;18.90;99.90;;;;;;5047630;28;20679;-82
2022/07/27 00:13:37;;;;;;;3.70;2.40;;;18.90;99.90;;;;;;5044091;28;20645;-82
2022/07/27 00:16:04;;;;;;;1.70;1.60;;;18.80;99.90;;;;;;5047468;28;20629;-81
2022/07/27 00:18:32;;;;;;;1.90;1.73;;;18.90;99.90;;;;;;5044481;28;20673;-82
2022/07/27 00:20:59;;;;;;;2.80;2.00;;;18.80;99.90;;;;;;5046628;28;20646;-82
2022/07/27 00:23:26;;;;;;;3.40;1.73;;;18.70;99.90;;;;;;5048081;28;20630;-82
2022/07/27 00:25:52;;;;;;;2.23;2.00;;;18.80;99.90;;;;;;5050860;28;20630;-82
2022/07/27 00:28:19;;;;;;;2.90;1.70;;;18.70;99.90;;;;;;5045969;28;21305;-82
2022/07/27 00:30:48;;;;;;;2.30;1.73;;;18.70;99.90;;;;;;5044831;28;20670;-82
2022/07/27 00:33:14;;;;;;;3.27;1.90;;;18.70;99.90;;;;;;5039337;28;20636;-81
2022/07/27 00:35:41;;;;;;;2.70;2.00;;;18.70;99.90;;;;;;5041170;28;20622;-82
2022/07/27 00:38:08;;;;;;;2.50;2.13;;;18.70;99.90;;;;;;5043964;28;21043;-82
2022/07/27 00:40:35;;;;;;;1.93;1.70;;;18.70;99.90;;;;;;5047198;28;20733;-82
2022/07/27 00:43:03;;;;;;;2.47;2.27;;;18.70;99.90;;;;;;5045307;28;20633;-83
2022/07/27 00:45:30;;;;;;;1.90;1.67;;;18.80;99.90;;;;;;5047861;28;20633;-82
2022/07/27 00:47:58;;;;;;;3.30;2.20;;;18.80;99.90;;;;;;5048479;28;20696;-82
2022/07/27 00:50:25;;;;;;;3.10;2.07;;;18.80;99.90;;;;;;5047685;28;20658;-83
2022/07/27 00:52:53;;;;;;;3.43;2.03;;;18.70;99.90;;;;;;5043815;28;21132;-83
2022/07/27 00:55:20;;;;;;;2.27;2.00;;;18.70;99.90;;;;;;5043230;28;20630;-83
2022/07/27 00:57:46;;;;;;;3.77;2.13;;;18.80;99.90;;;;;;5046236;28;21203;-83
2022/07/27 01:00:15;;;;;;;2.93;2.07;;;18.80;99.90;;;;;;5046620;28;20653;-82
2022/07/27 01:02:42;;;;;;;4.50;2.00;;;18.80;99.90;;;;;;5046178;28;21407;-82
2022/07/27 01:05:10;;;;;;;2.20;2.00;;;18.80;99.90;;;;;;5047237;28;20673;-83
2022/07/27 01:07:37;;;;;;;2.23;2.00;;;18.70;99.90;;;;;;5047426;28;20626;-82
2022/07/27 01:10:05;;;;;;;3.23;1.90;;;18.70;99.90;;;;;;5047391;28;20745;-82
2022/07/27 01:12:32;;;;;;;2.70;1.97;;;18.60;99.90;;;;;;5047631;28;20636;-82
2022/07/27 01:15:00;;;;;;;7.37;2.23;;;18.60;99.90;;;;;;5046634;28;20621;-82
2022/07/27 01:17:29;;;;;;;5.07;2.10;;;18.50;99.90;;;;;;5045623;28;21259;-82
2022/07/27 01:19:56;;;;;;;2.50;2.27;;;18.50;99.90;;;;;;5047000;28;21257;-83
2022/07/27 01:22:24;;;;;;;5.13;1.83;;;18.50;99.90;;;;;;5044897;28;20644;-83
2022/07/27 01:24:51;;;;;;;2.90;2.70;;;18.50;99.90;;;;;;5044693;28;20626;-82
2022/07/27 01:27:18;;;;;;;5.20;3.10;;;18.40;99.90;;;;;;5045264;28;20661;-82
2022/07/27 01:29:45;;;;;;;4.87;2.43;;;18.40;99.90;;;;;;5045456;28;21000;-81
2022/07/27 01:32:12;;;;;;;2.70;2.40;;;18.40;99.90;;;;;;5045527;28;20626;-81
2022/07/27 01:34:39;;;;;;;2.30;2.00;;;18.30;99.90;;;;;;5045042;28;20624;-82
2022/07/27 01:37:06;;;;;;;2.60;2.40;;;18.30;99.90;;;;;;5045299;28;20649;-81
2022/07/27 01:39:35;;;;;;;3.00;2.63;;;18.30;99.90;;;;;;5042636;28;20777;-81
2022/07/27 01:42:02;;;;;;;2.73;2.50;;;18.20;99.90;;;;;;5046085;28;20630;-81
2022/07/27 01:44:29;;;;;;;3.17;2.93;;;18.20;99.90;;;;;;5042457;28;20692;-81
2022/07/27 01:46:56;;;;;;;3.83;2.57;;;18.10;99.90;;;;;;5042253;28;20633;-81
2022/07/27 01:49:23;;;;;;;3.27;2.50;;;18.10;99.90;;;;;;5042404;28;20642;-81
2022/07/27 01:51:50;;;;;;;2.37;2.17;;;18.10;99.90;;;;;;5045713;28;20634;-81
2022/07/27 01:54:17;;;;;;;3.57;2.30;;;18.10;99.90;;;;;;5041465;28;20757;-81
2022/07/27 01:56:46;;;;;;;2.77;2.57;;;18.00;99.90;;;;;;5044935;28;20621;-81
2022/07/27 01:59:13;;;;;;;2.50;2.30;;;17.90;99.90;;;;;;5034997;28;20665;-81
2022/07/27 02:01:40;;;;;;;3.70;2.53;;;18.00;99.90;;;;;;5044668;28;20630;-81
2022/07/27 02:04:06;;;;;;;3.90;2.30;;;17.90;99.90;;;;;;5046598;28;20681;-82
2022/07/27 02:06:33;;;;;;;3.13;2.90;;;17.90;99.90;;;;;;5044668;28;20630;-81
2022/07/27 02:09:00;;;;;;;5.27;2.67;;;17.80;99.90;;;;;;5042916;28;20622;-81
2022/07/27 02:14:13;;;;;;;3.43;3.10;;;17.70;99.90;;;;;;5046559;28;20667;-81
2022/07/27 02:16:39;;;;;;;3.13;2.93;;;17.70;99.90;;;;;;5052513;28;20623;-81
2022/07/27 02:19:06;;;;;;;2.47;2.00;;;17.70;99.90;;;;;;5049883;28;21008;-81
2022/07/27 02:21:33;;;;;;;2.87;2.60;;;17.70;99.90;;;;;;5055617;28;21243;-81
2022/07/27 02:24:00;;;;;;;3.20;2.77;;;17.70;99.90;;;;;;5045152;28;20634;-81
2022/07/27 02:26:27;;;;;;;3.10;2.73;;;17.80;99.90;;;;;;5046314;28;21046;-81
2022/07/27 02:28:54;;;;;;;2.80;2.60;;;17.70;99.90;;;;;;5046244;28;20618;-81
2022/07/27 02:31:24;;;;;;;4.03;2.63;;;17.60;99.90;;;;;;5045326;28;20777;-81
2022/07/27 02:33:50;;;;;;;3.10;2.67;;;17.40;99.90;;;;;;5042605;28;20748;-81
2022/07/27 02:36:17;;;;;;;2.43;2.33;;;17.40;99.90;;;;;;5043462;28;20632;-81
2022/07/27 02:38:44;;;;;;;3.70;3.33;;;17.40;99.90;;;;;;5044555;28;20658;-81
2022/07/27 02:41:11;;;;;;;3.10;2.80;;;17.40;99.90;;;;;;5045089;28;20788;-81
2022/07/27 02:43:38;;;;;;;3.33;2.73;;;17.40;99.90;;;;;;5042608;28;20634;-81
2022/07/27 02:46:05;;;;;;;4.50;3.00;;;17.40;99.90;;;;;;5044813;28;20626;-81
2022/07/27 02:48:34;;;;;;;3.10;2.90;;;17.30;99.90;;;;;;5044832;28;20745;-81
2022/07/27 02:51:01;;;;;;;4.63;2.87;;;17.30;99.90;;;;;;5044290;28;20649;-81
2022/07/27 02:53:29;;;;;;;3.30;3.03;;;17.30;99.90;;;;;;5044079;28;20626;-81
2022/07/27 02:55:56;;;;;;;3.20;2.90;;;17.30;99.90;;;;;;5043954;28;20633;-81
2022/07/27 02:58:23;;;;;;;4.17;2.63;;;17.30;99.90;;;;;;5048371;28;20696;-81
2022/07/27 03:00:51;;;;;;;3.40;3.00;;;17.40;99.90;;;;;;5048420;28;20664;-81
2022/07/27 03:03:18;;;;;;;3.00;2.67;;;17.50;99.90;;;;;;5045096;28;20634;-81
2022/07/27 03:05:47;;;;;;;3.27;2.97;;;17.50;99.90;;;;;;5046675;28;21005;-82
2022/07/27 03:08:14;;;;;;;5.93;3.00;;;17.40;99.90;;;;;;5046553;28;20633;-81
2022/07/27 03:10:41;;;;;;;3.63;3.30;;;17.30;99.90;;;;;;5045501;28;20650;-81
2022/07/27 03:13:07;;;;;;;3.20;2.90;;;17.30;99.90;;;;;;5048513;28;20637;-81
2022/07/27 03:15:34;;;;;;;2.97;2.63;;;17.20;99.90;;;;;;5045449;28;20638;-82
2022/07/27 03:18:01;;;;;;;3.47;3.17;;;17.20;99.90;;;;;;5048027;28;21388;-82
2022/07/27 03:20:28;;;;;;;3.30;3.10;;;17.10;99.90;;;;;;5050542;28;21239;-82
2022/07/27 03:22:57;;;;;;;3.30;3.10;;;17.10;99.90;;;;;;5045943;28;21278;-81
2022/07/27 03:25:24;;;;;;;4.33;3.20;;;17.10;99.90;;;;;;5046273;28;20718;-81
2022/07/27 03:27:51;;;;;;;3.40;2.80;;;17.10;99.90;;;;;;5046502;28;20642;-82
2022/07/27 03:30:18;;;;;;;3.20;3.00;;;17.10;99.90;;;;;;5038955;28;21236;-82
2022/07/27 03:32:47;;;;;;;4.10;3.30;;;17.10;99.90;;;;;;5049284;28;20632;-81
2022/07/27 03:35:14;;;;;;;3.30;3.00;;;17.00;99.90;;;;;;5048650;28;20637;-81
2022/07/27 03:37:41;;;;;;;6.17;3.30;;;17.00;99.90;;;;;;5051579;28;20640;-82
2022/07/27 03:40:10;;;;;;;3.63;3.30;;;16.90;99.90;;;;;;5047481;28;20677;-81
2022/07/27 03:42:37;;;;;;;3.30;3.00;;;16.90;99.90;;;;;;5049252;28;20630;-82
2022/07/27 03:45:04;;;;;;;3.40;3.20;;;16.90;99.90;;;;;;5048585;28;20641;-82
2022/07/27 03:47:31;;;;;;;3.80;3.57;;;16.90;99.90;;;;;;5049402;28;20630;-81
2022/07/27 03:49:58;;;;;;;3.63;3.30;;;16.90;99.90;;;;;;5043207;28;20668;-82
2022/07/27 03:52:25;;;;;;;3.77;3.47;;;16.90;99.90;;;;;;5046879;28;21001;-82
2022/07/27 03:54:52;;;;;;;3.50;3.20;;;16.80;99.90;;;;;;5048168;28;20625;-81
2022/07/27 03:57:20;;;;;;;5.53;3.40;;;16.80;99.90;;;;;;5035473;28;20636;-82
2022/07/27 03:59:47;;;;;;;3.93;3.63;;;16.80;99.90;;;;;;5046610;28;20712;-81
2022/07/27 04:02:13;;;;;;;3.97;3.67;;;16.80;99.90;;;;;;5046579;28;20633;-81
2022/07/27 04:04:40;;;;;;;3.60;3.30;;;16.80;99.90;;;;;;5044295;28;20960;-81
2022/07/27 04:07:08;;;;;;;5.10;3.60;;;16.80;99.90;;;;;;5046487;28;20648;-82
2022/07/27 04:09:36;;;;;;;3.37;3.07;;;16.70;99.90;;;;;;5045965;28;21031;-81
2022/07/27 04:12:03;;;;;;;4.53;3.03;;;16.70;99.90;;;;;;5045911;28;20634;-82
2022/07/27 04:14:31;;;;;;;4.97;3.07;;;16.90;99.90;;;;;;5046480;28;20637;-81
2022/07/27 04:16:58;;;;;;;3.80;3.20;;;16.90;99.90;;;;;;5042937;28;20717;-82
2022/07/27 04:19:26;;;;;;;4.10;3.63;;;16.90;99.90;;;;;;5046173;28;20697;-82
2022/07/27 04:21:53;;;;;;;4.80;3.63;;;16.80;99.90;;;;;;5048045;28;20731;-82
2022/07/27 04:24:20;;;;;;;3.20;3.00;;;16.90;99.90;;;;;;5044204;28;20661;-82
2022/07/27 04:26:46;;;;;;;4.73;3.13;;;16.90;99.90;;;;;;5047866;28;20634;-82
2022/07/27 04:29:13;;;;;;;7.70;3.63;;;16.90;99.90;;;;;;5047953;28;21037;-81
2022/07/27 04:31:41;;;;;;;3.50;3.20;;;16.90;99.90;;;;;;5047649;28;20630;-82
2022/07/27 04:34:08;;;;;;;4.00;3.67;;;17.00;99.90;;;;;;5046354;28;21330;-82
2022/07/27 04:36:38;;;;;;;3.67;3.47;;;17.10;99.90;;;;;;5045742;28;21157;-80
2022/07/27 04:39:05;;;;;;;3.33;3.13;;;17.20;99.90;;;;;;5045103;28;20693;-84
2022/07/27 04:41:32;;;;;;;7.60;3.80;;;17.20;99.90;;;;;;5047148;28;21484;-81
2022/07/27 04:43:59;;;;;;;3.57;3.37;;;17.30;99.90;;;;;;5045781;28;20636;-84
2022/07/27 04:46:25;;;;;;;4.33;3.97;;;17.50;99.90;;;;;;5048179;28;20673;-83
2022/07/27 04:48:54;;;;;;;4.23;3.90;;;17.50;99.90;;;;;;5047319;28;20629;-83
2022/07/27 04:51:21;;;;;;;3.90;3.40;;;17.60;99.90;;;;;;5047637;28;21022;-82
2022/07/27 04:53:47;;;;;;;3.40;3.10;;;17.70;99.90;;;;;;5047444;28;20625;-82
2022/07/27 04:56:14;;;;;;;4.13;3.73;;;17.70;99.90;;;;;;5046350;28;20630;-83
2022/07/27 04:58:41;;;;;;;4.53;4.00;;;17.70;99.90;;;;;;5047258;28;20626;-83
2022/07/27 05:01:11;;;;;;;6.57;3.90;;;17.80;99.90;;;;;;5045795;28;20662;-82
2022/07/27 05:03:38;;;;;;;4.37;3.83;;;17.90;99.90;;;;;;5048469;28;20640;-82
2022/07/27 05:06:07;;;;;;;3.90;3.50;;;17.90;99.90;;;;;;5045664;28;20626;-82
2022/07/27 05:08:34;;;;;;;3.57;3.27;;;18.00;99.90;;;;;;5045255;28;20718;-82
2022/07/27 05:11:01;;;;;;;4.83;3.47;;;18.00;99.90;;;;;;5043217;28;20986;-81
2022/07/27 05:13:28;;;;;;;4.77;3.77;;;18.10;99.90;;;;;;5044621;28;20629;-81
2022/07/27 05:15:54;;;;;;;6.57;3.60;;;18.20;99.90;;;;;;5045851;28;20634;-81
2022/07/27 05:18:21;;;;;;;4.13;3.70;;;18.20;99.90;;;;;;5045300;28;20629;-82
2022/07/27 05:20:48;;;;;;;4.80;3.10;;;18.20;99.90;;;;;;5045515;28;20690;-82
2022/07/27 05:23:17;;;;;;;4.13;3.73;;;18.30;99.90;;;;;;5044785;28;21404;-82
2022/07/27 05:25:44;;;;;;;3.60;3.30;;;18.40;99.90;;;;;;5050072;28;20632;-82
2022/07/27 05:28:11;;;;;;;3.73;3.43;;;18.40;99.90;;;;;;5046150;28;20646;-82
2022/07/27 05:30:38;;;;;;;4.90;4.30;;;18.50;99.90;;;;;;5046192;28;20704;-82
2022/07/27 05:33:05;;;;;;;3.30;3.10;;;18.50;99.90;;;;;;5048390;28;20661;-82
2022/07/27 05:35:32;;;;;;;5.20;3.80;;;18.50;99.90;;;;;;5042203;28;20633;-82
2022/07/27 05:37:59;;;;;;;4.50;3.90;;;18.60;99.90;;;;;;5045838;28;20652;-83
2022/07/27 05:40:27;;;;;;;3.80;3.50;;;18.60;99.90;;;;;;5045949;28;20714;-83
2022/07/27 05:42:54;;;;;;;4.30;4.00;;;18.80;99.90;;;;;;5045776;28;20634;-83
2022/07/27 05:45:21;;;;;;;4.17;3.50;;;18.80;99.90;;;;;;5048681;28;21000;-83
2022/07/27 05:47:48;;;;;;;5.97;4.90;;;18.80;99.90;;;;;;5038042;28;20837;-83
2022/07/27 05:50:16;;;;;;;4.87;3.70;;;18.90;99.90;;;;;;5046222;28;20661;-83
2022/07/27 05:52:43;;;;;;;4.67;3.87;;;18.90;99.90;;;;;;5046881;28;20633;-83
2022/07/27 05:55:11;;;;;;;7.50;4.30;;;19.00;99.90;;;;;;5050909;28;20982;-82
2022/07/27 05:57:40;;;;;;;4.53;3.50;;;19.00;99.90;;;;;;5044600;28;20633;-81
2022/07/27 06:00:09;;;;;;;4.10;3.77;;;19.10;99.90;;;;;;5039840;28;20678;-81
2022/07/27 06:02:36;;;;;;;3.67;3.37;;;19.20;99.90;;;;;;5050525;28;20632;-82
2022/07/27 06:05:04;;;;;;;4.33;4.00;;;19.20;99.90;;;;;;5046007;28;20626;-82
2022/07/27 06:10:15;;;;;;;4.43;3.10;;;19.30;99.90;;;;;;5046682;28;21117;-82
2022/07/27 06:12:46;;;;;;;3.93;3.63;;;19.30;99.90;;;;;;5049534;28;20638;-82
2022/07/27 06:15:13;;;;;;;10.53;3.40;;;19.40;99.90;;;;;;5046546;28;20633;-82
2022/07/27 06:17:40;;;;;;;3.40;3.20;;;19.50;99.90;;;;;;5045628;28;20639;-82
2022/07/27 06:20:09;;;;;;;4.50;4.10;;;19.50;99.90;;;;;;5050126;28;20679;-83
2022/07/27 06:22:45;;;;;;;4.83;3.83;;;19.60;99.90;;;;;;5046388;28;20729;-82
2022/07/27 06:25:12;;;;;;;3.60;3.30;;;19.50;99.90;;;;;;5042891;28;20710;-82
2022/07/27 06:27:39;;;;;;;3.80;3.50;;;19.50;99.90;;;;;;5046088;28;20631;-82
2022/07/27 06:30:08;;;;;;;5.43;3.37;;;19.60;99.90;;;;;;5044600;28;20665;-82
2022/07/27 06:32:35;;;;;;;4.33;3.77;;;19.70;99.90;;;;;;5050909;28;20630;-81
2022/07/27 06:35:03;;;;;;;4.03;3.60;;;19.80;99.90;;;;;;5049204;28;20621;-82
2022/07/27 06:37:30;;;;;;;4.90;4.40;;;19.80;99.90;;;;;;5053690;28;20628;-81
2022/07/27 06:39:57;;;;;;;5.70;4.33;;;19.90;99.90;;;;;;5049097;28;20755;-81
2022/07/27 06:42:24;;;;;;;4.03;3.63;;;19.90;99.90;;;;;;5050980;28;20640;-81
2022/07/27 06:44:51;;;;;;;3.70;3.23;;;20.00;99.90;;;;;;5048382;28;20626;-81
2022/07/27 06:47:21;;;;;;;4.50;3.33;;;20.00;99.90;;;;;;5043093;28;20625;-82
2022/07/27 06:49:48;;;;;;;3.40;3.20;;;20.10;99.90;;;;;;5044932;28;21047;-81
2022/07/27 06:52:15;;;;;;;4.07;3.60;;;20.10;99.90;;;;;;5046997;28;20625;-81
2022/07/27 06:54:42;;;;;;;4.17;3.80;;;20.20;99.90;;;;;;5046293;28;20618;-82
2022/07/27 06:57:09;;;;;;;4.10;3.40;;;20.20;99.90;;;;;;5049355;28;20621;-82
2022/07/27 06:59:36;;;;;;;4.60;4.10;;;20.20;99.90;;;;;;5045760;28;20650;-81
2022/07/27 07:02:02;;;;;;;5.90;3.73;;;20.20;99.90;;;;;;5047718;28;21134;-82
2022/07/27 07:04:32;;;;;;;3.60;3.40;;;20.30;99.90;;;;;;5046699;28;20859;-81
2022/07/27 07:07:00;;;;;;;4.10;3.80;;;20.30;99.90;;;;;;5045579;28;20629;-81
2022/07/27 07:09:27;;;;;;;4.07;3.67;;;20.40;99.90;;;;;;5047387;28;20688;-82
2022/07/27 07:11:54;;;;;;;4.87;3.57;;;20.40;99.90;;;;;;5046723;28;20638;-82
2022/07/27 07:14:21;;;;;;;4.53;4.13;;;20.50;99.90;;;;;;5045287;28;20633;-82
2022/07/27 07:16:48;;;;;;;6.57;3.53;;;20.60;99.90;;;;;;5047119;28;21105;-81
2022/07/27 07:19:15;;;;;;;3.67;3.37;;;20.70;99.90;;;;;;5046126;28;20644;-82
2022/07/27 07:21:44;;;;;;;3.90;3.40;;;20.80;99.90;;;;;;5048376;28;21146;-82
2022/07/27 07:24:13;;;;;;;3.30;3.00;;;20.80;99.90;;;;;;5045598;28;21098;-82
2022/07/27 07:26:40;;;;;;;4.07;3.43;;;20.90;99.90;;;;;;5048035;28;20660;-83
2022/07/27 07:29:07;;;;;;;3.87;3.50;;;21.00;99.90;;;;;;5046426;28;20648;-82
2022/07/27 07:31:33;;;;;;;5.73;3.80;;;21.10;99.90;;;;;;5044027;28;20664;-82
2022/07/27 07:34:00;;;;;;;4.00;3.70;;;21.20;99.90;;;;;;5044493;28;20759;-82
2022/07/27 07:36:27;;;;;;;5.37;4.00;;;21.30;99.90;;;;;;5045703;28;20690;-82
2022/07/27 07:38:55;;;;;;;4.70;3.77;;;21.40;99.90;;;;;;5051130;28;20624;-82
2022/07/27 07:41:22;;;;;;;7.60;3.27;;;21.50;99.90;;;;;;5044843;28;20682;-82
2022/07/27 07:43:49;;;;;;;3.77;3.47;;;21.40;99.90;;;;;;5044089;28;20638;-82
2022/07/27 07:46:16;;;;;;;3.70;3.40;;;21.50;99.90;;;;;;5043889;28;20645;-82
2022/07/27 07:48:43;;;;;;;4.13;3.27;;;21.50;99.90;;;;;;5047231;28;20632;-82
2022/07/27 07:51:11;;;;;;;3.73;3.40;;;21.60;99.90;;;;;;5047648;28;20708;-83
2022/07/27 07:53:38;;;;;;;3.63;3.33;;;21.70;99.90;;;;;;5044224;28;20653;-82
2022/07/27 07:56:06;;;;;;;3.63;3.30;;;21.80;99.90;;;;;;5046378;28;20625;-82
2022/07/27 07:58:33;;;;;;;3.60;3.30;;;22.00;99.90;;;;;;5048078;28;20621;-82
2022/07/27 08:01:00;;;;;;;2.70;2.50;;;22.20;99.90;;;;;;5044112;28;20677;-82
2022/07/27 08:03:27;;;;;;;8.67;3.50;;;22.30;99.90;;;;;;5045346;28;20683;-82
2022/07/27 08:05:54;;;;;;;3.10;2.90;;;22.50;99.90;;;;;;5041931;28;20623;-82
2022/07/27 08:08:21;;;;;;;3.33;3.07;;;22.70;99.90;;;;;;5044933;28;20648;-82
2022/07/27 08:10:48;;;;;;;3.57;3.27;;;22.70;99.90;;;;;;5043179;28;20652;-82
2022/07/27 08:13:16;;;;;;;3.57;3.27;;;22.90;99.90;;;;;;5044389;28;20736;-82
2022/07/27 08:15:43;;;;;;;7.80;3.50;;;22.90;99.90;;;;;;5042573;28;20725;-82
2022/07/27 08:18:10;;;;;;;4.10;3.70;;;23.00;99.90;;;;;;5042694;28;20628;-82
2022/07/27 08:20:37;;;;;;;3.93;3.63;;;23.00;99.60;;;;;;5044405;28;20773;-82
2022/07/27 08:23:04;;;;;;;4.63;3.30;;;22.90;99.30;;;;;;5045449;28;20625;-82
2022/07/27 08:25:32;;;;;;;3.30;3.10;;;23.00;99.40;;;;;;5042865;28;20780;-82
2022/07/27 08:27:59;;;;;;;4.63;3.70;;;23.00;99.50;;;;;;5042829;28;20698;-82
2022/07/27 08:30:27;;;;;;;3.20;3.00;;;23.20;99.40;;;;;;5045580;28;20653;-82
2022/07/27 08:32:58;;;;;;;3.30;3.10;;;23.30;99.10;;;;;;5044708;28;20688;-82
2022/07/27 08:35:26;;;;;;;4.00;3.70;;;23.50;98.80;;;;;;5043762;28;20988;-82
2022/07/27 08:37:53;;;;;;;3.20;2.73;;;23.60;98.40;;;;;;5046104;28;20634;-82
2022/07/27 08:40:21;;;;;;;8.43;3.83;;;23.70;97.80;;;;;;5044854;28;20677;-82
2022/07/27 08:42:48;;;;;;;3.97;3.63;;;23.70;97.20;;;;;;5044135;28;20725;-82
2022/07/27 08:45:19;;;;;;;6.13;3.97;;;23.70;97.50;;;;;;5044796;28;20641;-82
2022/07/27 08:47:47;;;;;;;3.67;3.30;;;23.90;97.50;;;;;;5043291;28;20986;-82
2022/07/27 08:50:28;;;;;;;9.80;3.60;;;23.90;96.80;;;;;;5044081;28;21008;-82
2022/07/27 08:53:01;;;;;;;4.07;3.77;;;23.90;96.90;;;;;;5041907;28;20632;-82
2022/07/27 08:55:29;;;;;;;4.07;3.47;;;23.90;96.50;;;;;;5039216;28;21465;-82
2022/07/27 08:57:58;;;;;;;5.47;3.83;;;24.00;96.60;;;;;;5046373;28;20628;-82
2022/07/27 09:00:26;;;;;;;3.70;3.20;;;24.00;96.50;;;;;;5046169;28;20686;-82
2022/07/27 09:02:54;;;;;;;3.63;3.33;;;24.10;96.70;;;;;;5045210;28;20728;-82
2022/07/27 09:05:22;;;;;;;4.57;4.17;;;24.30;96.30;;;;;;5043414;28;21254;-82
2022/07/27 09:07:49;;;;;;;3.17;2.87;;;24.30;95.70;;;;;;5046918;28;20625;-82
2022/07/27 09:10:29;;;;;;;4.37;3.63;;;24.40;95.40;;;;;;5046481;28;20668;-82
2022/07/27 09:12:57;;;;;;;6.80;3.63;;;24.50;95.40;;;;;;5043445;28;20665;-82
2022/07/27 09:15:24;;;;;;;3.30;3.00;;;24.50;95.00;;;;;;5039377;28;20730;-82
2022/07/27 09:17:51;;;;;;;3.50;3.20;;;24.50;95.20;;;;;;5045424;28;20634;-82
2022/07/27 09:20:21;;;;;;;3.70;3.20;;;24.60;95.40;;;;;;5042937;28;20658;-82
2022/07/27 09:22:52;;;;;;;3.37;2.80;;;24.70;95.60;;;;;;5041176;28;21243;-82
2022/07/27 09:25:21;;;;;;;4.23;3.70;;;24.80;95.00;;;;;;5042273;28;20665;-82
2022/07/27 09:27:52;;;;;;;3.90;3.50;;;25.00;94.30;;;;;;5048916;28;20626;-82
2022/07/27 09:30:20;;;;;;;3.57;3.27;;;25.00;94.10;;;;;;5043683;28;20673;-83
2022/07/27 09:32:56;;;;;;;4.00;3.60;;;25.20;94.00;;;;;;5046271;28;20664;-80
2022/07/27 09:35:29;;;;;;;3.67;3.00;;;25.20;93.10;;;;;;5045479;28;20636;-82
2022/07/27 09:37:56;;;;;;;3.90;3.60;;;25.10;93.40;;;;;;5045054;28;20628;-83
2022/07/27 09:40:24;;;;;;;4.20;3.40;;;25.10;93.30;;;;;;5043990;28;21293;-83
2022/07/27 09:43:09;;;;;;;3.80;3.50;;;25.00;93.50;;;;;;5041101;28;20652;-82
2022/07/27 09:45:38;;;;;;;4.57;4.20;;;24.90;93.70;;;;;;5041484;28;20618;-82
2022/07/27 09:48:14;;;;;;;4.23;3.33;;;24.90;93.60;;;;;;5043795;28;20629;-82
2022/07/27 09:50:44;;;;;;;4.47;3.40;;;25.10;94.00;;;;;;5044172;28;21101;-82
2022/07/27 09:53:20;;;;;;;3.53;3.20;;;25.20;93.20;;;;;;5044628;28;20622;-82
2022/07/27 09:55:58;;;;;;;4.27;3.47;;;25.40;93.10;;;;;;5028120;28;20617;-82
2022/07/27 09:58:47;;;;;;;5.43;4.27;;;25.50;92.80;;;;;;5044979;28;20703;-82
2022/07/27 10:01:16;;;;;;;4.20;3.30;;;25.60;92.40;;;;;;5040149;28;20696;-82
2022/07/27 10:03:45;;;;;;;4.27;3.90;;;25.50;92.70;;;;;;5045881;28;21029;-82
2022/07/27 10:06:13;;;;;;;8.23;3.40;;;25.60;92.40;;;;;;5045183;28;21006;-82
2022/07/27 10:08:42;;;;;;;7.73;3.40;;;25.40;92.30;;;;;;5043327;28;20636;-83
2022/07/27 10:11:10;;;;;;;3.33;3.10;;;25.30;92.40;;;;;;5043547;28;20654;-82
2022/07/27 10:13:37;;;;;;;4.17;3.50;;;25.40;92.60;;;;;;5044767;28;20964;-82
2022/07/27 10:16:05;;;;;;;4.10;3.63;;;25.40;92.60;;;;;;5045588;28;21202;-82
2022/07/27 10:18:48;;;;;;;3.60;3.30;;;25.60;92.40;;;;;;5044642;28;21306;-82
2022/07/27 10:21:17;;;;;;;3.70;3.40;;;25.70;92.40;;;;;;5044848;28;20713;-82
2022/07/27 10:23:55;;;;;;;3.83;2.90;;;25.60;92.00;;;;;;5045333;28;20626;-82
2022/07/27 10:26:28;;;;;;;3.73;3.40;;;25.60;91.90;;;;;;5043537;28;20647;-82
2022/07/27 10:28:57;;;;;;;3.30;3.10;;;25.70;92.20;;;;;;5047632;28;20626;-82
2022/07/27 10:31:26;;;;;;;3.80;3.50;;;25.90;91.50;;;;;;5045352;28;20654;-82
2022/07/27 10:33:54;;;;;;;3.80;3.23;;;25.80;91.60;;;;;;5045039;28;21043;-83
2022/07/27 10:36:48;;;;;;;3.03;2.83;;;25.90;91.50;;;;;;5045420;28;20706;-82
2022/07/27 10:39:34;;;;;;;3.43;2.60;;;26.20;91.20;;;;;;5037526;28;20621;-83
2022/07/27 10:42:29;;;;;;;3.53;3.23;;;26.40;91.00;;;;;;5043623;28;20670;-82
2022/07/27 10:45:02;;;;;;;3.90;3.40;;;26.70;90.80;;;;;;5040624;28;21237;-82
2022/07/27 10:47:34;;;;;;;3.37;3.17;;;26.90;90.10;;;;;;5046360;28;20653;-81
2022/07/27 10:50:24;;;;;;;3.47;3.00;;;27.10;89.30;;;;;;5044307;28;20664;-81
2022/07/27 10:52:54;;;;;;;4.10;3.60;;;27.30;89.80;;;;;;5039959;28;20630;-81
2022/07/27 10:55:41;;;;;;;3.23;2.90;;;27.60;88.50;;;;;;5046002;28;20614;-82
2022/07/27 10:58:44;;;;;;;3.13;2.93;;;27.80;86.70;;;;;;5044575;28;21205;-82
2022/07/27 11:01:12;;;;;;;8.30;3.70;;;27.80;87.20;;;;;;5038463;28;20704;-82
2022/07/27 11:03:40;;;;;;;8.43;2.70;;;27.60;85.10;;;;;;5047326;28;20665;-82
2022/07/27 11:06:10;;;;;;;3.27;2.97;;;27.50;85.90;;;;;;5044884;28;20636;-81
2022/07/27 11:08:39;;;;;;;4.73;2.63;;;27.50;84.80;;;;;;5041397;28;20660;-81
2022/07/27 11:11:08;;;;;;;3.30;2.67;;;27.50;83.90;;;;;;5044137;28;20672;-81
2022/07/27 11:13:35;;;;;;;3.00;2.70;;;27.50;81.80;;;;;;5041204;28;20688;-82
2022/07/27 11:16:05;;;;;;;4.83;2.73;;;27.50;80.50;;;;;;5044640;28;20630;-81
2022/07/27 11:18:34;;;;;;;5.77;2.80;;;27.70;81.50;;;;;;5047687;28;20687;-82
2022/07/27 11:21:18;;;;;;;2.50;2.30;;;27.90;78.10;;;;;;5047360;28;20670;-82
2022/07/27 11:23:48;;;;;;;2.73;2.53;;;28.00;79.30;;;;;;5039810;28;21259;-82
2022/07/27 11:26:16;;;;;;;3.40;2.37;;;28.40;78.00;;;;;;5048713;28;21282;-83
2022/07/27 11:28:43;;;;;;;7.07;2.30;;;28.50;76.40;;;;;;5048137;28;20718;-82
2022/07/27 11:31:13;;;;;;;2.67;2.43;;;28.60;76.40;;;;;;5046876;28;20768;-82
2022/07/27 11:33:55;;;;;;;3.00;2.33;;;28.80;75.50;;;;;;5047399;28;20645;-81
2022/07/27 11:36:23;;;;;;;3.00;2.10;;;28.80;74.80;;;;;;5046293;28;20728;-82
2022/07/27 11:38:54;;;;;;;2.17;1.93;;;29.00;73.40;;;;;;5044486;28;20614;-82
2022/07/27 11:41:27;;;;;;;3.13;2.40;;;29.10;72.80;;;;;;5046420;28;20684;-82
2022/07/27 11:44:00;;;;;;;2.87;2.23;;;28.90;71.20;;;;;;5045504;28;20638;-82
2022/07/27 11:46:29;;;;;;;2.73;1.87;;;28.90;70.10;;;;;;5048631;28;21621;-82
2022/07/27 11:48:58;;;;;;;2.60;2.40;;;28.90;70.20;;;;;;5050388;28;20622;-82
2022/07/27 11:51:26;;;;;;;2.13;2.00;;;29.40;70.40;;;;;;5048070;28;20649;-82
2022/07/27 11:53:59;;;;;;;5.77;2.40;;;29.30;70.00;;;;;;5044627;28;20633;-82
2022/07/27 11:56:27;;;;;;;2.60;2.40;;;29.40;70.40;;;;;;5048064;28;20684;-82
2022/07/27 11:58:58;;;;;;;2.67;2.47;;;29.20;70.60;;;;;;5047048;28;20968;-82
2022/07/27 12:01:30;;;;;;;2.50;2.13;;;29.10;70.80;;;;;;5047290;28;20685;-82
2022/07/27 12:04:17;;;;;;;2.40;2.20;;;29.10;70.60;;;;;;5050738;28;20736;-82
2022/07/27 12:06:45;;;;;;;2.40;2.17;;;29.10;70.50;;;;;;5049940;28;20695;-82
2022/07/27 12:09:15;;;;;;;2.07;1.97;;;29.00;68.70;;;;;;5046721;28;21036;-82
2022/07/27 12:11:52;;;;;;;2.43;1.90;;;29.10;68.80;;;;;;5049721;28;20617;-82
2022/07/27 12:14:27;;;;;;;2.00;1.90;;;29.30;66.70;;;;;;5043622;28;20622;-82
2022/07/27 12:16:55;;;;;;;2.20;2.03;;;29.90;67.40;;;;;;5048735;28;21128;-82
2022/07/27 12:19:23;;;;;;;2.30;2.10;;;30.50;64.30;;;;;;5047417;28;20641;-82
2022/07/27 12:21:54;;;;;;;2.70;1.80;;;30.90;62.50;;;;;;5047398;28;21231;-82
2022/07/27 12:24:32;;;;;;;4.20;2.27;;;31.40;62.80;;;;;;5045509;28;20653;-82
2022/07/27 12:27:07;;;;;;;1.90;1.80;;;31.50;59.80;;;;;;5042791;28;21227;-82
2022/07/27 12:29:54;;;;;;;3.20;1.67;;;31.30;59.90;;;;;;5046356;28;20660;-82
2022/07/27 12:32:22;;;;;;;3.67;2.30;;;31.10;61.80;;;;;;5043647;28;20634;-82
2022/07/27 12:34:49;;;;;;;2.40;2.20;;;31.00;60.70;;;;;;5046244;28;20644;-82
2022/07/27 12:37:15;;;;;;;4.57;1.83;;;30.90;61.30;;;;;;5046846;28;20657;-82
2022/07/27 12:39:45;;;;;;;2.07;1.97;;;31.10;62.10;;;;;;5044444;28;21258;-82
2022/07/27 12:42:13;;;;;;;2.20;2.00;;;31.30;61.00;;;;;;5045341;28;21259;-82
2022/07/27 12:44:42;;;;;;;1.97;1.80;;;31.50;60.50;;;;;;5045390;28;20633;-82
2022/07/27 12:50:06;;;;;;;5.20;1.80;;;31.40;58.30;;;;;;5045799;28;20660;-82
2022/07/27 12:52:34;;;;;;;1.80;1.70;;;30.90;59.80;;;;;;5044727;28;20626;-82
2022/07/27 12:55:03;;;;;;;3.47;1.77;;;30.90;59.20;;;;;;5045576;28;20638;-83
2022/07/27 12:57:29;;;;;;;4.20;2.10;;;30.90;58.80;;;;;;5046599;28;20729;-82
2022/07/27 12:59:56;;;;;;;4.20;1.73;;;31.20;59.20;;;;;;5048182;28;20657;-82
2022/07/27 13:02:23;;;;;;;2.53;2.10;;;31.50;57.60;;;;;;5046975;28;21072;-82
2022/07/27 13:04:50;;;;;;;1.80;1.70;;;31.60;55.90;;;;;;5046590;28;20836;-82